Time;durP1;ratioP1;P1;durP2;ratioP2;P2;SDS_P1;SDS_P2;PMS_P1;PMS_P2;Temp;Humidity;BMP_temperature;BMP_pressure;BME280_temperature;BME280_humidity;BME280_pressure;Samples;Min_cycle;Max_cycle;Signal;HPM_P1;HPM_P2
2022/01/07 00:00:16;;;;;;;6.28;3.85;;;;;;;1.65;78.38;97776.79;1743559;82;21009;-77
2022/01/07 00:02:46;;;;;;;5.53;3.35;;;;;;;1.66;78.53;97790.28;1733069;82;21009;-77
2022/01/07 00:05:15;;;;;;;6.95;3.70;;;;;;;1.69;78.75;97789.00;1734413;82;21015;-77
2022/01/07 00:07:42;;;;;;;5.47;3.80;;;;;;;1.71;78.63;97806.84;1728552;82;21169;-77
2022/01/07 00:10:12;;;;;;;7.33;4.70;;;;;;;1.74;78.75;97812.97;1734691;82;21012;-75
2022/01/07 00:12:38;;;;;;;5.42;4.42;;;;;;;1.73;78.70;97816.45;1729816;80;21101;-74
2022/01/07 00:15:08;;;;;;;6.67;4.15;;;;;;;1.75;78.08;97832.98;1742438;80;21533;-77
2022/01/07 00:17:35;;;;;;;5.90;4.05;;;;;;;1.71;77.14;97825.58;1718679;83;21041;-78
2022/01/07 00:20:12;;;;;;;8.45;4.10;;;;;;;1.69;75.87;97832.52;1719214;83;21036;-77
2022/01/07 00:22:39;;;;;;;9.20;4.00;;;;;;;1.68;76.31;97844.73;1718894;82;21422;-77
2022/01/07 00:25:09;;;;;;;8.40;4.33;;;;;;;1.62;75.60;97842.53;1718561;83;21068;-77
2022/01/07 00:27:37;;;;;;;6.55;3.90;;;;;;;1.58;76.18;97835.98;1733107;82;21020;-77
2022/01/07 00:30:08;;;;;;;6.30;3.50;;;;;;;1.60;75.52;97846.86;1748205;82;21025;-77
2022/01/07 00:32:35;;;;;;;5.78;4.17;;;;;;;1.53;74.07;97847.30;1744269;82;21041;-77
2022/01/07 00:35:04;;;;;;;9.08;4.03;;;;;;;1.51;75.33;97847.28;1741716;81;20981;-77
2022/01/07 00:37:31;;;;;;;3.77;2.98;;;;;;;1.45;73.67;97844.20;1748824;82;21621;-77
2022/01/07 00:39:57;;;;;;;6.00;3.55;;;;;;;1.41;74.16;97852.88;1719875;82;20997;-77
2022/01/07 00:42:24;;;;;;;5.55;3.35;;;;;;;1.39;73.15;97861.57;1719781;82;21004;-77
2022/01/07 00:44:51;;;;;;;4.15;2.83;;;;;;;1.38;74.22;97860.72;1719249;83;21012;-77
2022/01/07 00:47:17;;;;;;;5.00;3.00;;;;;;;1.35;71.57;97873.75;1719478;83;21000;-77
2022/01/07 00:49:44;;;;;;;5.83;3.42;;;;;;;1.32;73.20;97871.11;1719404;83;21026;-77
2022/01/07 00:52:11;;;;;;;6.17;3.15;;;;;;;1.24;70.98;97875.44;1719189;83;21067;-77
2022/01/07 00:54:37;;;;;;;5.00;3.12;;;;;;;1.23;72.99;97871.94;1724749;82;21376;-77
2022/01/07 00:57:04;;;;;;;4.72;2.77;;;;;;;1.20;73.31;97884.96;1749013;82;20964;-77
2022/01/07 00:59:31;;;;;;;4.50;2.95;;;;;;;1.19;73.55;97892.36;1748927;82;21012;-77
2022/01/07 01:01:57;;;;;;;5.80;3.15;;;;;;;1.20;73.67;97898.02;1748882;82;21402;-77
2022/01/07 01:04:24;;;;;;;3.67;2.47;;;;;;;1.04;70.50;97899.67;1746282;82;20974;-78
2022/01/07 01:06:50;;;;;;;6.30;3.05;;;;;;;0.94;70.96;97904.35;1749084;82;21403;-78
2022/01/07 01:09:17;;;;;;;5.67;3.02;;;;;;;0.90;72.14;97916.09;1749017;82;20957;-77
2022/01/07 01:11:43;;;;;;;4.78;3.00;;;;;;;0.86;72.19;97913.01;1748292;82;20981;-77
2022/01/07 01:14:10;;;;;;;4.87;2.58;;;;;;;0.85;72.79;97920.41;1752666;81;21037;-77
2022/01/07 01:16:37;;;;;;;8.45;2.62;;;;;;;0.80;72.39;97927.31;1754625;81;21008;-77
2022/01/07 01:19:06;;;;;;;4.33;2.62;;;;;;;0.77;72.05;97930.78;1754753;82;20997;-77
2022/01/07 01:21:35;;;;;;;3.15;2.30;;;;;;;0.75;71.76;97930.32;1744637;81;21414;-77
2022/01/07 01:24:02;;;;;;;6.47;2.02;;;;;;;0.74;72.26;97938.98;1740223;82;21000;-77
2022/01/07 01:26:28;;;;;;;3.10;1.80;;;;;;;0.68;71.32;97933.30;1754708;82;21418;-76
2022/01/07 01:28:55;;;;;;;4.28;2.60;;;;;;;0.68;70.88;97942.43;1754680;82;21028;-76
2022/01/07 01:31:21;;;;;;;4.35;2.30;;;;;;;0.63;68.12;97946.28;1746722;82;20992;-76
2022/01/07 01:33:48;;;;;;;4.90;1.87;;;;;;;0.50;65.74;97948.34;1730999;80;21022;-77
2022/01/07 01:36:15;;;;;;;4.22;2.27;;;;;;;0.47;69.07;97953.11;1742874;82;21365;-77
2022/01/07 01:38:42;;;;;;;3.77;2.10;;;;;;;0.39;69.11;97950.84;1742597;82;21456;-77
2022/01/07 01:41:10;;;;;;;5.28;2.00;;;;;;;0.32;67.74;97964.23;1743908;82;20981;-77
2022/01/07 01:43:37;;;;;;;4.20;2.15;;;;;;;0.26;68.50;97970.24;1752711;82;20997;-76
2022/01/07 01:46:05;;;;;;;3.27;2.08;;;;;;;0.25;68.64;97966.34;1754918;82;20961;-76
2022/01/07 01:48:31;;;;;;;3.72;2.10;;;;;;;0.19;68.79;97971.05;1754738;82;21045;-76
2022/01/07 01:50:58;;;;;;;4.47;2.30;;;;;;;0.18;69.23;97976.23;1752896;82;21442;-76
2022/01/07 01:53:26;;;;;;;3.92;1.92;;;;;;;0.17;69.74;97981.00;1724538;83;21036;-76
2022/01/07 01:55:53;;;;;;;4.60;2.52;;;;;;;0.15;67.85;97980.98;1724994;83;21016;-76
2022/01/07 01:58:20;;;;;;;5.92;2.60;;;;;;;0.12;67.31;97990.94;1724953;83;21524;-76
2022/01/07 02:00:47;;;;;;;4.53;2.10;;;;;;;0.11;69.44;97993.52;1724698;83;21434;-76
2022/01/07 02:03:13;;;;;;;3.80;2.05;;;;;;;0.10;66.51;97993.09;1742930;82;20992;-76
2022/01/07 02:05:39;;;;;;;4.75;2.15;;;;;;;0.13;69.32;98003.56;1754783;81;21024;-76
2022/01/07 02:08:08;;;;;;;3.90;2.08;;;;;;;0.13;69.57;98000.95;1754675;81;20988;-75
2022/01/07 02:10:35;;;;;;;5.47;2.42;;;;;;;0.13;69.54;98003.56;1754697;81;21055;-76
2022/01/07 02:13:02;;;;;;;3.15;1.90;;;;;;;0.12;69.07;98006.58;1727391;82;20996;-76
2022/01/07 02:15:29;;;;;;;5.67;2.20;;;;;;;0.12;69.76;98002.67;1710871;84;21097;-76
2022/01/07 02:17:57;;;;;;;3.37;1.95;;;;;;;0.12;70.18;98009.19;1711290;84;21446;-76
2022/01/07 02:20:28;;;;;;;4.35;2.10;;;;;;;0.10;68.50;98014.82;1725175;82;21010;-77
2022/01/07 02:22:57;;;;;;;3.52;1.98;;;;;;;-0.02;65.67;98018.14;1740609;82;21625;-76
2022/01/07 02:25:26;;;;;;;4.42;1.90;;;;;;;-0.05;67.35;98010.27;1735045;82;21056;-76
2022/01/07 02:27:54;;;;;;;6.95;2.40;;;;;;;-0.19;65.12;98014.42;1704441;82;21028;-76
2022/01/07 02:30:28;;;;;;;4.22;2.05;;;;;;;-0.24;66.43;98019.99;1710152;82;20979;-76
2022/01/07 02:32:57;;;;;;;3.62;1.98;;;;;;;-0.29;67.16;98014.73;1716963;82;21315;-76
2022/01/07 02:35:28;;;;;;;3.37;2.10;;;;;;;-0.33;67.75;98022.91;1726512;81;21007;-76
2022/01/07 02:37:54;;;;;;;3.62;1.98;;;;;;;-0.39;67.28;98026.73;1726302;83;20955;-76
2022/01/07 02:40:21;;;;;;;4.37;2.45;;;;;;;-0.38;67.66;98032.83;1732106;82;21419;-77
2022/01/07 02:42:48;;;;;;;3.90;2.00;;;;;;;-0.42;68.21;98038.39;1740899;82;21043;-77
2022/01/07 02:45:15;;;;;;;4.33;2.33;;;;;;;-0.44;68.79;98037.09;1740863;82;21013;-77
2022/01/07 02:47:53;;;;;;;3.80;2.40;;;;;;;-0.45;68.57;98033.16;1729368;82;20942;-76
2022/01/07 02:50:27;;;;;;;3.35;2.00;;;;;;;-0.47;69.07;98035.73;1722631;82;21053;-75
2022/01/07 02:52:55;;;;;;;4.22;1.80;;;;;;;-0.52;68.61;98037.39;1740940;82;21025;-76
2022/01/07 02:55:23;;;;;;;4.10;2.05;;;;;;;-0.55;68.23;98031.71;1740880;82;21056;-76
2022/01/07 02:57:49;;;;;;;4.72;2.00;;;;;;;-0.63;66.49;98032.45;1740885;82;20998;-76
2022/01/07 03:00:17;;;;;;;2.50;1.55;;;;;;;-0.68;67.68;98029.34;1736545;82;21053;-76
2022/01/07 03:02:46;;;;;;;4.15;2.00;;;;;;;-0.72;68.53;98034.05;1740943;82;20981;-76
2022/01/07 03:05:13;;;;;;;3.92;1.98;;;;;;;-0.79;67.28;98050.39;1740526;82;21107;-78
2022/01/07 03:07:42;;;;;;;4.60;1.72;;;;;;;-0.81;67.90;98046.91;1739644;82;21072;-78
2022/01/07 03:10:10;;;;;;;2.98;1.82;;;;;;;-0.90;67.02;98042.43;1731055;82;21068;-78
2022/01/07 03:12:38;;;;;;;3.98;1.82;;;;;;;-1.00;66.30;98050.93;1711447;84;20981;-78
2022/01/07 03:15:06;;;;;;;3.70;1.82;;;;;;;-1.01;67.46;98057.84;1711530;83;21073;-78
2022/01/07 03:17:33;;;;;;;6.47;2.12;;;;;;;-1.05;66.85;98056.03;1711447;84;21000;-78
2022/01/07 03:19:59;;;;;;;3.90;2.02;;;;;;;-1.10;67.81;98058.56;1717921;82;20997;-78
2022/01/07 03:22:26;;;;;;;5.50;2.30;;;;;;;-1.09;68.10;98067.23;1741107;82;21418;-78
2022/01/07 03:24:52;;;;;;;6.85;2.37;;;;;;;-1.16;66.91;98062.33;1740975;82;20998;-78
2022/01/07 03:27:19;;;;;;;3.83;1.87;;;;;;;-1.18;67.87;98067.94;1739240;82;20977;-78
2022/01/07 03:29:45;;;;;;;4.87;1.90;;;;;;;-1.17;67.86;98064.48;1715265;82;21064;-78
2022/01/07 03:32:11;;;;;;;4.17;2.00;;;;;;;-1.18;68.25;98069.66;1721143;82;20971;-78
2022/01/07 03:34:38;;;;;;;5.53;1.98;;;;;;;-1.20;67.87;98074.85;1727000;81;20948;-78
2022/01/07 03:37:05;;;;;;;4.35;2.12;;;;;;;-1.20;67.78;98065.75;1726540;82;20998;-78
2022/01/07 03:39:31;;;;;;;4.85;2.20;;;;;;;-1.27;66.68;98084.26;1735850;82;20982;-78
2022/01/07 03:41:58;;;;;;;5.33;2.08;;;;;;;-1.35;67.28;98087.13;1741082;82;21037;-78
2022/01/07 03:44:24;;;;;;;3.58;2.10;;;;;;;-1.39;67.09;98085.30;1741022;82;21013;-78
2022/01/07 03:46:51;;;;;;;6.12;1.80;;;;;;;-1.40;67.46;98088.76;1715393;82;21005;-78
2022/01/07 03:49:17;;;;;;;6.25;1.80;;;;;;;-1.47;65.48;98087.75;1711543;83;21005;-78
2022/01/07 03:51:43;;;;;;;3.12;1.32;;;;;;;-1.49;65.72;98090.32;1711530;84;21403;-79
2022/01/07 03:54:10;;;;;;;2.67;1.50;;;;;;;-1.51;66.12;98091.13;1709849;82;21091;-78
2022/01/07 03:56:36;;;;;;;3.02;1.37;;;;;;;-1.52;66.81;98093.28;1708856;82;20989;-78
2022/01/07 03:59:04;;;;;;;2.95;1.30;;;;;;;-1.60;64.62;98093.13;1711495;84;21021;-78
2022/01/07 04:01:30;;;;;;;3.70;1.37;;;;;;;-1.68;64.57;98092.09;1711371;84;21004;-79
2022/01/07 04:03:57;;;;;;;1.45;1.17;;;;;;;-1.78;64.04;98093.19;1711399;84;21447;-78
2022/01/07 04:06:23;;;;;;;5.40;1.60;;;;;;;-1.80;64.14;98100.09;1730825;82;20998;-78
2022/01/07 04:08:51;;;;;;;2.55;0.98;;;;;;;-1.79;65.16;98109.63;1740788;82;21052;-76
2022/01/07 04:11:17;;;;;;;2.17;1.35;;;;;;;-1.89;64.01;98102.07;1741001;82;20986;-76
2022/01/07 04:13:44;;;;;;;3.08;1.50;;;;;;;-1.87;64.55;98114.66;1741980;82;20990;-77
2022/01/07 04:16:13;;;;;;;2.58;1.30;;;;;;;-1.91;64.73;98120.63;1738402;82;21020;-76
2022/01/07 04:18:39;;;;;;;3.42;1.67;;;;;;;-1.95;64.69;98122.69;1725064;83;21011;-76
2022/01/07 04:21:06;;;;;;;4.25;2.00;;;;;;;-1.97;64.72;98130.00;1724940;83;20976;-77
2022/01/07 04:23:33;;;;;;;2.90;1.65;;;;;;;-2.07;64.40;98128.52;1725170;83;21057;-77
2022/01/07 04:25:59;;;;;;;2.72;1.32;;;;;;;-2.07;64.62;98127.63;1729472;82;21005;-77
2022/01/07 04:28:26;;;;;;;2.95;1.62;;;;;;;-2.11;64.67;98126.69;1724817;83;21051;-77
2022/01/07 04:30:52;;;;;;;5.45;1.52;;;;;;;-2.12;65.45;98127.50;1725177;83;21001;-76
2022/01/07 04:33:26;;;;;;;2.58;1.27;;;;;;;-2.14;65.38;98129.20;1728240;80;21032;-76
2022/01/07 04:35:50;;;;;;;3.58;1.85;;;;;;;-2.15;65.38;98131.34;1735257;82;21038;-76
2022/01/07 04:38:16;;;;;;;4.53;2.10;;;;;;;-2.15;65.39;98125.71;1733400;82;20991;-76
2022/01/07 04:40:43;;;;;;;4.50;2.20;;;;;;;-2.17;65.34;98135.61;1742770;82;21015;-76
2022/01/07 04:43:10;;;;;;;5.67;2.25;;;;;;;-2.20;65.71;98125.17;1731436;82;21048;-76
2022/01/07 04:45:36;;;;;;;2.90;1.60;;;;;;;-2.20;65.65;98146.80;1725054;83;21409;-76
2022/01/07 04:48:04;;;;;;;3.58;1.45;;;;;;;-2.24;65.10;98150.19;1725160;83;21017;-76
2022/01/07 04:50:32;;;;;;;4.58;1.87;;;;;;;-2.29;64.76;98148.77;1724943;83;21020;-76
2022/01/07 04:52:59;;;;;;;2.35;1.40;;;;;;;-2.30;65.41;98150.91;1741923;82;21009;-76
2022/01/07 04:55:30;;;;;;;3.15;1.70;;;;;;;-2.42;64.89;98147.59;1754969;82;21429;-75
2022/01/07 04:57:57;;;;;;;3.12;1.70;;;;;;;-2.45;65.18;98151.84;1754812;82;21043;-75
2022/01/07 05:00:24;;;;;;;3.40;1.47;;;;;;;-2.48;65.17;98146.15;1754984;81;21029;-76
2022/01/07 05:02:51;;;;;;;2.60;1.32;;;;;;;-2.52;64.85;98149.06;1739778;82;21080;-76
2022/01/07 05:05:18;;;;;;;2.60;1.50;;;;;;;-2.49;64.99;98143.52;1725052;83;21028;-76
2022/01/07 05:07:44;;;;;;;4.95;1.60;;;;;;;-2.54;64.66;98148.16;1725004;83;21017;-76
2022/01/07 05:10:14;;;;;;;3.15;1.50;;;;;;;-2.54;64.72;98150.76;1724793;82;21003;-76
2022/01/07 05:12:42;;;;;;;5.12;1.27;;;;;;;-2.56;64.65;98145.96;1736206;82;21032;-76
2022/01/07 05:15:11;;;;;;;2.58;1.32;;;;;;;-2.57;64.74;98153.70;1754409;81;21056;-76
2022/01/07 05:17:38;;;;;;;3.33;1.35;;;;;;;-2.55;64.66;98150.71;1754848;82;21048;-76
2022/01/07 05:20:06;;;;;;;3.67;1.70;;;;;;;-2.51;65.36;98157.73;1754477;81;21411;-76
2022/01/07 05:22:33;;;;;;;3.98;1.80;;;;;;;-2.51;65.28;98161.63;1744488;82;20954;-76
2022/01/07 05:24:59;;;;;;;5.65;1.60;;;;;;;-2.50;65.60;98165.98;1725032;83;20988;-76
2022/01/07 05:27:26;;;;;;;4.62;1.57;;;;;;;-2.53;66.26;98169.38;1724818;83;21020;-75
2022/01/07 05:29:52;;;;;;;5.75;2.08;;;;;;;-2.49;66.55;98179.84;1750778;82;20989;-75
2022/01/07 05:32:19;;;;;;;3.98;1.65;;;;;;;-2.49;66.70;98174.66;1751784;82;21040;-76
2022/01/07 05:34:46;;;;;;;3.45;1.67;;;;;;;-2.56;65.50;98173.62;1738210;80;20974;-75
2022/01/07 05:37:13;;;;;;;6.35;1.90;;;;;;;-2.56;65.46;98169.72;1741619;82;21483;-75
2022/01/07 05:39:39;;;;;;;4.12;2.00;;;;;;;-2.60;65.22;98181.75;1742494;82;20955;-76
2022/01/07 05:42:06;;;;;;;5.78;2.10;;;;;;;-2.63;65.57;98182.95;1743819;82;21072;-77
2022/01/07 05:44:33;;;;;;;4.25;1.70;;;;;;;-2.61;65.34;98183.00;1754895;82;21402;-77
2022/01/07 05:47:00;;;;;;;3.10;1.50;;;;;;;-2.61;66.26;98175.22;1749100;81;21016;-75
2022/01/07 05:49:26;;;;;;;7.60;1.85;;;;;;;-2.63;65.94;98182.95;1724954;83;21048;-77
2022/01/07 05:51:52;;;;;;;3.52;1.42;;;;;;;-2.62;65.47;98194.22;1735043;82;21028;-75
2022/01/07 05:54:19;;;;;;;4.00;1.67;;;;;;;-2.62;66.44;98192.48;1738731;82;21355;-75
2022/01/07 05:56:51;;;;;;;3.70;1.75;;;;;;;-2.60;66.49;98198.62;1736720;82;21008;-75
2022/01/07 05:59:17;;;;;;;4.42;2.00;;;;;;;-2.60;66.35;98196.42;1737884;82;20981;-75
2022/01/07 06:01:45;;;;;;;4.95;2.15;;;;;;;-2.65;66.11;98197.62;1737687;82;21094;-75
2022/01/07 06:04:11;;;;;;;5.28;1.95;;;;;;;-2.68;66.22;98199.71;1735265;82;21958;-75
2022/01/07 06:06:38;;;;;;;5.22;1.90;;;;;;;-2.69;66.27;98203.12;1736189;82;21008;-75
2022/01/07 06:09:05;;;;;;;5.12;2.08;;;;;;;-2.72;66.46;98200.88;1727885;82;21063;-75
2022/01/07 06:11:31;;;;;;;4.92;2.20;;;;;;;-2.72;66.42;98208.25;1741139;82;20989;-73
2022/01/07 06:13:58;;;;;;;6.12;2.30;;;;;;;-2.76;66.74;98213.29;1742462;82;21389;-77
2022/01/07 06:16:24;;;;;;;7.47;2.50;;;;;;;-2.78;66.97;98217.17;1726198;82;21018;-77
2022/01/07 06:19:00;;;;;;;20.20;8.85;;;;;;;-2.79;67.34;98216.28;1725303;83;21046;-77
2022/01/07 06:21:22;;;;;;;10.85;4.37;;;;;;;-2.79;67.39;98210.20;1716349;82;21430;-77
2022/01/07 06:23:49;;;;;;;6.92;3.17;;;;;;;-2.80;67.56;98214.53;1711412;83;20946;-77
2022/01/07 06:26:17;;;;;;;5.90;2.33;;;;;;;-2.85;67.13;98216.52;1711303;84;21136;-77
2022/01/07 06:28:44;;;;;;;5.03;1.90;;;;;;;-2.87;66.02;98218.21;1711230;84;20970;-77
2022/01/07 06:31:10;;;;;;;4.90;2.08;;;;;;;-2.91;65.60;98209.44;1717928;82;21469;-77
2022/01/07 06:33:37;;;;;;;3.77;1.62;;;;;;;-2.88;65.67;98219.91;1733551;81;20991;-77
2022/01/07 06:36:04;;;;;;;3.33;1.35;;;;;;;-2.84;63.86;98220.87;1726169;83;21022;-78
2022/01/07 06:38:30;;;;;;;2.00;1.00;;;;;;;-2.81;65.52;98225.75;1726326;82;21538;-77
2022/01/07 06:40:57;;;;;;;4.00;1.02;;;;;;;-2.77;65.83;98224.11;1729534;82;21041;-78
2022/01/07 06:43:24;;;;;;;3.60;1.47;;;;;;;-2.74;66.01;98229.80;1737257;82;20985;-78
2022/01/07 06:45:50;;;;;;;4.85;2.05;;;;;;;-2.74;65.55;98231.95;1737360;82;21057;-78
2022/01/07 06:48:18;;;;;;;6.40;2.65;;;;;;;-2.77;64.74;98221.92;1740332;82;21427;-79
2022/01/07 06:50:46;;;;;;;6.45;3.08;;;;;;;-2.82;65.44;98224.41;1740919;82;21025;-79
2022/01/07 06:53:12;;;;;;;11.00;4.10;;;;;;;-2.91;65.45;98221.11;1726813;82;21410;-77
2022/01/07 06:55:39;;;;;;;6.97;3.65;;;;;;;-2.97;65.97;98223.55;1723306;82;21014;-79
2022/01/07 06:58:05;;;;;;;9.18;4.40;;;;;;;-3.06;66.26;98225.47;1723021;82;21644;-78
2022/01/07 07:00:32;;;;;;;11.48;3.90;;;;;;;-3.05;66.70;98231.11;1673231;85;21074;-79
2022/01/07 07:02:58;;;;;;;8.23;4.05;;;;;;;-3.08;66.99;98229.30;1661974;85;21038;-77
2022/01/07 07:05:25;;;;;;;7.53;3.30;;;;;;;-3.07;67.12;98221.12;1658226;86;21057;-78
2022/01/07 07:07:52;;;;;;;7.87;3.30;;;;;;;-3.13;66.29;98216.63;1680675;85;21069;-78
2022/01/07 07:10:18;;;;;;;7.75;3.70;;;;;;;-3.14;66.62;98218.77;1685865;85;20986;-78
2022/01/07 07:12:45;;;;;;;7.25;2.95;;;;;;;-3.17;66.38;98217.81;1684119;85;21017;-78
2022/01/07 07:15:11;;;;;;;4.78;2.42;;;;;;;-3.22;66.26;98225.03;1686870;84;21495;-78
2022/01/07 07:17:38;;;;;;;5.00;2.20;;;;;;;-3.21;66.54;98225.89;1688648;85;21049;-78
2022/01/07 07:20:05;;;;;;;4.10;2.55;;;;;;;-3.16;66.23;98228.20;1688886;84;21049;-78
2022/01/07 07:22:32;;;;;;;6.67;2.67;;;;;;;-3.16;65.74;98228.20;1686819;85;21052;-78
2022/01/07 07:24:58;;;;;;;6.15;2.50;;;;;;;-3.20;65.69;98221.19;1661194;86;21033;-78
2022/01/07 07:27:25;;;;;;;5.35;2.80;;;;;;;-3.14;66.04;98227.84;1661234;86;21447;-78
2022/01/07 07:29:51;;;;;;;5.50;2.98;;;;;;;-3.14;65.98;98225.25;1661281;86;21033;-78
2022/01/07 07:32:23;;;;;;;6.30;3.30;;;;;;;-3.09;66.33;98231.45;1661128;86;21065;-78
2022/01/07 07:37:23;;;;;;;7.65;2.90;;;;;;;-2.99;66.63;98223.93;1623753;88;20986;-78
2022/01/07 07:39:50;;;;;;;5.87;2.60;;;;;;;-2.91;66.74;98228.89;1690700;85;21077;-78
2022/01/07 07:42:16;;;;;;;6.33;3.08;;;;;;;-2.86;66.90;98228.59;1682385;85;21107;-78
2022/01/07 07:44:45;;;;;;;5.75;2.45;;;;;;;-2.79;66.69;98233.55;1686688;85;21000;-78
2022/01/07 07:47:11;;;;;;;4.53;2.60;;;;;;;-2.76;66.39;98230.16;1678035;85;21456;-78
2022/01/07 07:49:38;;;;;;;9.03;3.00;;;;;;;-2.72;66.81;98232.00;1687362;85;21028;-78
2022/01/07 07:52:05;;;;;;;7.80;2.50;;;;;;;-2.66;66.11;98229.59;1692881;84;21048;-78
2022/01/07 07:54:32;;;;;;;6.42;3.02;;;;;;;-2.59;66.37;98228.02;1715898;84;21024;-78
2022/01/07 07:56:59;;;;;;;7.70;3.47;;;;;;;-2.53;66.09;98231.66;1706242;84;21458;-78
2022/01/07 07:59:26;;;;;;;6.03;3.35;;;;;;;-2.45;65.87;98230.56;1713842;84;21059;-78
2022/01/07 08:01:52;;;;;;;5.85;2.62;;;;;;;-2.37;66.12;98232.49;1704376;84;21004;-78
2022/01/07 08:04:20;;;;;;;4.83;2.60;;;;;;;-2.29;65.32;98234.84;1716077;84;21052;-78
2022/01/07 08:06:46;;;;;;;4.83;2.47;;;;;;;-2.24;65.29;98235.88;1706205;84;21008;-78
2022/01/07 08:09:13;;;;;;;5.25;2.52;;;;;;;-2.20;64.23;98229.89;1716031;84;21020;-78
2022/01/07 08:11:55;;;;;;;4.17;2.17;;;;;;;-2.18;61.18;98236.42;1704873;84;22248;-78
2022/01/07 08:17:07;;;;;;;5.45;2.40;;;;;;;-2.07;62.35;98232.81;1678052;85;21032;-77
2022/01/07 08:19:35;;;;;;;6.65;2.52;;;;;;;-2.05;62.19;98238.91;1687385;85;21004;-77
2022/01/07 08:22:03;;;;;;;5.65;3.12;;;;;;;-2.03;62.84;98235.95;1683173;84;20981;-77
2022/01/07 08:24:29;;;;;;;6.08;3.00;;;;;;;-1.96;62.41;98239.58;1715964;84;21032;-77
2022/01/07 08:26:56;;;;;;;7.25;2.87;;;;;;;-1.95;62.82;98243.48;1696485;84;21465;-77
2022/01/07 08:29:25;;;;;;;6.75;3.02;;;;;;;-1.95;61.37;98240.88;1673896;84;21058;-77
2022/01/07 08:37:03;;;;;;;5.78;3.22;;;;;;;-1.97;62.59;98253.38;1685816;84;21378;-77
2022/01/07 08:39:29;;;;;;;7.45;3.10;;;;;;;-1.91;62.16;98249.66;1704487;84;21012;-78
2022/01/07 08:41:55;;;;;;;7.33;3.20;;;;;;;-1.81;61.94;98257.23;1713628;83;21507;-77
2022/01/07 08:44:25;;;;;;;7.22;3.52;;;;;;;-1.74;61.56;98263.91;1714997;83;21001;-77
2022/01/07 08:46:52;;;;;;;7.28;3.20;;;;;;;-1.64;61.74;98261.13;1715716;84;21012;-77
2022/01/07 08:49:18;;;;;;;5.17;2.80;;;;;;;-1.49;61.67;98254.09;1692422;83;21413;-77
2022/01/07 08:51:45;;;;;;;6.62;3.20;;;;;;;-1.35;60.27;98258.32;1693119;84;20989;-77
2022/01/07 08:54:12;;;;;;;5.95;2.83;;;;;;;-1.36;58.09;98253.08;1684725;83;21015;-77
2022/01/07 08:56:40;;;;;;;6.80;3.58;;;;;;;-1.26;60.46;98248.94;1688746;84;20981;-78
2022/01/07 08:59:08;;;;;;;6.08;3.00;;;;;;;-1.14;61.47;98251.83;1705949;84;21448;-78
2022/01/07 09:01:34;;;;;;;4.25;2.10;;;;;;;-1.05;62.20;98243.33;1683936;84;20984;-77
2022/01/07 09:04:03;;;;;;;7.17;2.60;;;;;;;-0.98;60.80;98250.44;1674805;85;21027;-78
2022/01/07 09:06:30;;;;;;;5.95;2.83;;;;;;;-0.95;60.75;98248.31;1675167;85;20991;-78
2022/01/07 09:08:56;;;;;;;4.95;2.75;;;;;;;-0.92;61.04;98242.30;1691993;84;21541;-79
2022/01/07 09:11:22;;;;;;;4.65;2.67;;;;;;;-0.95;56.82;98244.41;1672136;83;21037;-78
2022/01/07 09:13:51;;;;;;;4.25;2.40;;;;;;;-0.94;58.66;98245.75;1695661;83;21394;-79
2022/01/07 09:16:19;;;;;;;5.37;2.65;;;;;;;-0.94;58.93;98246.16;1688684;83;21049;-78
2022/01/07 09:18:46;;;;;;;5.70;2.55;;;;;;;-0.93;59.46;98244.01;1686155;84;21060;-78
2022/01/07 09:21:12;;;;;;;4.83;2.58;;;;;;;-0.95;59.99;98240.52;1681369;84;21418;-78
2022/01/07 09:23:41;;;;;;;5.17;2.50;;;;;;;-0.94;59.66;98243.56;1691769;84;21033;-78
2022/01/07 09:26:10;;;;;;;4.12;2.35;;;;;;;-0.85;60.15;98241.56;1670462;85;21020;-78
2022/01/07 09:28:37;;;;;;;7.12;2.60;;;;;;;-0.71;59.86;98245.76;1683897;84;21461;-76
2022/01/07 09:31:04;;;;;;;6.10;3.10;;;;;;;-0.55;60.23;98241.29;1686502;84;21029;-78
2022/01/07 09:33:30;;;;;;;5.50;3.20;;;;;;;-0.47;57.37;98234.03;1682872;84;21136;-77
2022/01/07 09:35:57;;;;;;;5.00;2.50;;;;;;;-0.43;58.14;98236.73;1685638;84;21004;-78
2022/01/07 09:38:26;;;;;;;5.37;3.02;;;;;;;-0.47;55.76;98228.82;1683706;84;21412;-77
2022/01/07 09:40:52;;;;;;;7.75;3.12;;;;;;;-0.38;57.51;98226.39;1682034;84;21040;-77
2022/01/07 09:43:19;;;;;;;5.15;2.80;;;;;;;-0.34;56.66;98222.14;1682763;84;21040;-78
2022/01/07 09:45:45;;;;;;;7.55;2.95;;;;;;;-0.31;56.36;98207.44;1673965;85;21540;-81
2022/01/07 09:48:12;;;;;;;3.77;2.17;;;;;;;-0.27;57.49;98215.76;1662117;85;21000;-79
2022/01/07 09:50:38;;;;;;;8.53;2.67;;;;;;;-0.23;58.44;98217.98;1689137;84;21453;-79
2022/01/07 09:53:12;;;;;;;5.25;2.70;;;;;;;-0.37;53.81;98217.75;1679652;85;21128;-78
2022/01/07 09:55:40;;;;;;;5.33;2.52;;;;;;;-0.29;54.98;98212.67;1681871;85;21005;-78
2022/01/07 09:58:07;;;;;;;4.97;2.30;;;;;;;-0.34;53.75;98206.51;1664437;86;21061;-77
2022/01/07 10:00:43;;;;;;;6.22;2.50;;;;;;;-0.29;56.62;98200.52;1664433;86;21033;-77
2022/01/07 10:03:16;;;;;;;9.90;4.97;;;;;;;-0.23;57.09;98193.23;1664589;86;20985;-77
2022/01/07 10:05:51;;;;;;;5.05;2.80;;;;;;;-0.15;57.37;98192.06;1669311;85;21459;-77
2022/01/07 10:08:27;;;;;;;4.45;2.70;;;;;;;-0.08;56.98;98186.53;1691667;85;21083;-77
2022/01/07 10:11:19;;;;;;;4.47;2.27;;;;;;;-0.03;55.31;98183.57;1710211;84;21506;-78
2022/01/07 10:13:49;;;;;;;4.45;1.85;;;;;;;0.07;57.31;98172.84;1714445;83;21029;-78
2022/01/07 10:16:22;;;;;;;5.70;2.55;;;;;;;0.19;57.96;98173.46;1716865;83;21045;-78
2022/01/07 10:18:50;;;;;;;4.17;2.00;;;;;;;0.22;54.67;98181.34;1719236;83;20997;-77
2022/01/07 10:21:19;;;;;;;4.47;2.10;;;;;;;0.30;56.87;98179.73;1720317;83;21029;-78
2022/01/07 10:23:47;;;;;;;5.28;1.90;;;;;;;0.30;53.17;98178.43;1719810;83;21048;-78
2022/01/07 10:26:19;;;;;;;4.80;2.50;;;;;;;0.35;55.97;98177.17;1691148;85;21032;-78
2022/01/07 10:28:47;;;;;;;4.58;2.22;;;;;;;0.41;56.14;98180.31;1691056;85;21052;-76
2022/01/07 10:31:24;;;;;;;3.67;1.82;;;;;;;0.45;56.56;98169.92;1697468;83;21410;-75
2022/01/07 10:33:53;;;;;;;4.65;1.90;;;;;;;0.49;54.52;98173.03;1691659;85;21628;-75
2022/01/07 10:36:23;;;;;;;4.35;2.10;;;;;;;0.54;55.84;98173.08;1691497;85;21040;-74
2022/01/07 10:39:06;;;;;;;5.15;2.20;;;;;;;0.63;53.35;98175.81;1691386;84;21441;-75
2022/01/07 10:41:26;;;;;;;4.53;2.45;;;;;;;0.82;55.23;98172.14;1690134;83;21474;-75
2022/01/07 10:43:53;;;;;;;3.85;2.10;;;;;;;1.05;55.61;98165.88;1711669;83;21084;-76
2022/01/07 10:46:27;;;;;;;3.95;2.00;;;;;;;1.16;55.05;98167.32;1720884;83;20973;-75
2022/01/07 10:48:57;;;;;;;2.85;1.70;;;;;;;1.18;51.26;98169.53;1712092;83;21119;-76
2022/01/07 10:51:47;;;;;;;3.60;1.57;;;;;;;1.25;50.59;98162.61;1696707;83;20980;-76
2022/01/07 10:54:14;;;;;;;4.35;2.30;;;;;;;1.98;49.25;98160.67;1690546;83;21064;-74
2022/01/07 10:56:52;;;;;;;3.72;2.10;;;;;;;3.20;50.09;98145.55;1719680;83;21076;-76
2022/01/07 10:59:17;;;;;;;3.25;2.00;;;;;;;4.34;48.99;98135.98;1719801;83;21104;-76
2022/01/07 11:01:48;;;;;;;3.77;1.98;;;;;;;5.43;46.33;98137.72;1710510;83;20994;-75
2022/01/07 11:04:30;;;;;;;4.60;1.98;;;;;;;6.24;42.59;98131.83;1692230;85;20997;-76
2022/01/07 11:07:02;;;;;;;3.40;1.90;;;;;;;6.62;37.60;98116.50;1712853;83;21064;-75
2022/01/07 11:09:27;;;;;;;5.87;2.22;;;;;;;7.08;38.44;98113.73;1719651;83;21454;-75
2022/01/07 11:11:57;;;;;;;4.15;2.37;;;;;;;7.90;39.68;98119.09;1718204;83;21048;-75
2022/01/07 11:14:28;;;;;;;3.77;2.30;;;;;;;8.87;43.29;98118.67;1720817;83;21021;-75
2022/01/07 11:16:58;;;;;;;7.85;2.20;;;;;;;9.71;40.95;98100.94;1718901;83;21032;-76
2022/01/07 11:19:39;;;;;;;4.03;2.40;;;;;;;10.43;43.58;98101.33;1720644;83;21049;-76
2022/01/07 11:22:14;;;;;;;3.20;2.60;;;;;;;11.11;39.80;98091.48;1720282;83;21594;-76
2022/01/07 11:24:45;;;;;;;4.45;2.50;;;;;;;11.33;33.00;98089.03;1708699;83;21012;-76
2022/01/07 11:27:22;;;;;;;4.30;2.50;;;;;;;11.69;32.41;98085.27;1691444;85;21076;-76
2022/01/07 11:29:54;;;;;;;9.35;5.30;;;;;;;12.29;36.15;98077.08;1696945;84;21003;-76
2022/01/07 11:32:28;;;;;;;5.47;3.02;;;;;;;12.42;32.53;98078.86;1697448;84;21383;-76
2022/01/07 11:35:23;;;;;;;4.83;2.70;;;;;;;13.15;28.78;98070.84;1706799;83;21036;-76
2022/01/07 11:37:57;;;;;;;5.05;3.20;;;;;;;12.71;29.71;98069.41;1724847;83;21422;-75
2022/01/07 11:40:40;;;;;;;5.20;2.50;;;;;;;12.73;26.68;98071.54;1715832;83;21047;-76
2022/01/07 11:43:24;;;;;;;4.27;2.40;;;;;;;12.21;27.12;98065.39;1713702;83;20980;-77
2022/01/07 11:45:52;;;;;;;4.40;2.80;;;;;;;12.16;31.78;98063.36;1711644;83;21035;-76
2022/01/07 11:48:27;;;;;;;4.55;2.77;;;;;;;12.59;26.46;98060.98;1712966;83;21007;-76
2022/01/07 11:50:59;;;;;;;;;;;;;;;12.50;25.62;98055.51;1716400;83;21055;-76